createdAt,value
2023-10-13T00:02:07.417Z,187.67
2023-10-13T00:02:42.699Z,184.33
2023-10-13T00:03:16.505Z,180.67
2023-10-13T00:03:52.472Z,183.67
2023-10-13T00:04:38.575Z,186.00
2023-10-13T00:05:12.198Z,182.67
2023-10-13T00:05:48.791Z,178.33
2023-10-13T00:06:22.395Z,176.00
2023-10-13T00:07:00.892Z,176.00
2023-10-13T00:07:34.471Z,175.33
2023-10-13T00:08:10.790Z,173.67
2023-10-13T00:08:44.409Z,170.33
2023-10-13T00:09:17.965Z,170.33
2023-10-13T00:09:51.460Z,173.00
2023-10-13T00:10:25.584Z,176.00
2023-10-13T00:11:01.326Z,177.00
2023-10-13T00:11:35.771Z,177.00
2023-10-13T00:12:24.528Z,176.00
2023-10-13T00:13:27.926Z,175.00
2023-10-13T00:14:04.303Z,175.00
2023-10-13T00:14:42.866Z,174.33
2023-10-13T00:15:18.702Z,173.00
2023-10-13T00:15:59.236Z,172.33
2023-10-13T00:16:35.921Z,170.33
2023-10-13T00:17:11.585Z,170.00
2023-10-13T00:17:45.337Z,169.67
2023-10-13T00:18:20.382Z,170.00
2023-10-13T08:45:53.824Z,151.00
2023-10-13T08:46:30.733Z,151.00
2023-10-13T08:47:07.022Z,152.67
2023-10-13T08:47:42.493Z,154.00
2023-10-13T08:48:16.478Z,154.00
2023-10-13T08:48:50.064Z,154.00
2023-10-13T08:49:24.988Z,153.67
2023-10-13T08:50:11.970Z,153.00
2023-10-13T08:50:53.479Z,152.00
2023-10-13T08:51:44.468Z,152.00
2023-10-13T08:52:39.255Z,149.67
2023-10-13T08:53:28.097Z,147.33
2023-10-13T08:54:09.580Z,146.00
2023-10-13T08:55:04.946Z,146.00
2023-10-13T08:55:49.893Z,146.00
2023-10-13T08:56:36.374Z,144.67
2023-10-13T08:57:42.286Z,145.00
2023-10-13T08:58:15.808Z,144.00
2023-10-13T08:58:54.560Z,143.33
2023-10-13T08:59:40.174Z,141.67
2023-10-13T09:00:33.054Z,140.00
2023-10-13T09:01:35.562Z,137.00
2023-10-13T09:02:19.017Z,134.00
2023-10-13T09:03:21.388Z,133.33
2023-10-13T09:04:19.038Z,134.00
2023-10-13T09:05:01.023Z,134.00
2023-10-13T09:05:43.170Z,135.00
2023-10-13T09:06:23.918Z,135.00
2023-10-13T09:07:08.650Z,135.00
2023-10-13T09:08:02.566Z,135.33
2023-10-13T09:08:45.363Z,136.00
2023-10-13T09:09:41.058Z,137.00
2023-10-13T09:10:45.527Z,137.00
2023-10-13T09:11:27.580Z,137.67
2023-10-13T09:12:11.151Z,138.00
2023-10-13T09:13:05.046Z,137.67
2023-10-13T09:13:46.181Z,134.00
2023-10-13T09:14:35.234Z,133.00
2023-10-13T09:15:14.603Z,134.00
2023-10-13T09:16:05.742Z,135.00
2023-10-13T09:16:42.071Z,135.00
2023-10-13T09:17:21.664Z,134.00
2023-10-13T09:17:55.594Z,133.67
2023-10-13T09:18:48.134Z,133.67
2023-10-13T09:19:22.423Z,134.33
2023-10-13T09:19:58.566Z,139.67
2023-10-13T09:20:42.398Z,150.33
2023-10-13T09:21:56.010Z,156.33
2023-10-13T09:22:37.480Z,158.33
2023-10-13T09:23:28.733Z,157.67
2023-10-13T09:24:23.398Z,155.33
2023-10-13T09:25:01.518Z,154.00
2023-10-13T09:25:59.371Z,152.33
2023-10-13T09:26:37.335Z,150.67
2023-10-13T09:27:14.479Z,149.33
2023-10-13T09:27:54.546Z,149.00
2023-10-13T09:28:32.618Z,148.00
2023-10-13T09:29:19.622Z,148.00
2023-10-13T09:29:58.763Z,148.00
2023-10-13T09:30:32.676Z,148.00
2023-10-13T09:31:13.531Z,148.00
2023-10-13T09:32:03.265Z,147.00
2023-10-13T09:32:47.207Z,146.67
2023-10-13T09:33:37.274Z,145.33
2023-10-13T09:34:10.972Z,145.00
2023-10-13T09:34:45.776Z,145.33
2023-10-13T09:35:24.337Z,146.00
2023-10-13T09:36:00.958Z,146.33
2023-10-13T09:36:37.057Z,146.67
2023-10-13T09:37:12.956Z,146.67
2023-10-13T09:37:49.980Z,146.67
2023-10-13T09:38:27.447Z,146.00
2023-10-13T09:39:21.725Z,146.00
2023-10-13T09:40:05.991Z,145.00
2023-10-13T09:40:40.202Z,145.00
2023-10-13T09:41:20.210Z,146.00
2023-10-13T09:41:56.305Z,146.00
2023-10-13T09:42:29.749Z,147.00
2023-10-13T09:43:08.771Z,147.00
2023-10-13T09:43:44.958Z,147.00
2023-10-13T09:44:19.169Z,146.67
2023-10-13T09:44:53.321Z,146.33
2023-10-13T09:45:37.295Z,146.00
2023-10-13T09:46:19.266Z,147.00
2023-10-13T09:46:54.192Z,147.33
2023-10-13T09:47:38.602Z,148.00
2023-10-13T09:48:22.950Z,148.00
2023-10-13T09:49:09.625Z,147.67
2023-10-13T09:49:46.681Z,147.67
2023-10-13T09:50:27.446Z,148.00
2023-10-13T09:51:09.889Z,148.00
2023-10-13T09:51:48.231Z,148.00
2023-10-13T09:52:21.695Z,148.00
2023-10-13T09:52:57.827Z,148.00
2023-10-13T09:53:35.278Z,148.00
2023-10-13T09:54:41.674Z,148.00
2023-10-13T09:55:36.171Z,147.00
2023-10-13T09:56:33.575Z,146.33
2023-10-13T09:57:19.828Z,146.00
2023-10-13T09:58:12.043Z,144.67
2023-10-13T09:58:58.474Z,143.00
2023-10-13T09:59:50.530Z,143.00
2023-10-13T10:00:48.222Z,142.33
2023-10-13T10:01:35.103Z,143.00
2023-10-13T10:02:11.559Z,143.00
2023-10-13T10:02:45.732Z,143.33
2023-10-13T10:03:32.145Z,144.00
2023-10-13T10:04:19.226Z,144.00
2023-10-13T10:05:13.871Z,142.00
2023-10-13T10:06:18.594Z,141.00
2023-10-13T10:07:00.747Z,141.00
2023-10-13T10:07:34.500Z,140.00
2023-10-13T10:08:11.216Z,140.67
2023-10-13T10:08:52.381Z,140.00
2023-10-13T10:09:38.875Z,137.33
2023-10-13T10:10:23.439Z,132.00
2023-10-13T10:11:20.016Z,129.00
2023-10-13T10:12:19.802Z,124.33
2023-10-13T10:13:17.823Z,116.67
2023-10-13T10:14:10.138Z,115.00
2023-10-13T10:15:07.420Z,116.67
2023-10-13T10:15:48.566Z,118.00
2023-10-13T10:17:04.170Z,119.00
2023-10-13T10:17:48.860Z,111.00
2023-10-13T10:18:26.880Z,108.33
2023-10-13T10:19:03.584Z,105.00
2023-10-13T10:19:58.417Z,99.00
2023-10-13T10:20:43.990Z,95.00
2023-10-13T10:21:21.710Z,94.33
2023-10-13T10:22:17.916Z,94.00
2023-10-13T10:23:01.840Z,96.67
2023-10-13T10:23:41.389Z,95.67
2023-10-13T10:24:31.115Z,95.67
2023-10-13T10:25:08.241Z,94.67
2023-10-13T10:25:45.849Z,96.00
2023-10-13T10:26:22.397Z,96.67
2023-10-13T10:26:55.946Z,96.33
2023-10-13T10:27:32.066Z,97.00
2023-10-13T10:28:09.081Z,97.67
2023-10-13T10:28:44.910Z,98.33
2023-10-13T10:29:19.120Z,99.00
2023-10-13T10:29:57.694Z,99.00
2023-10-13T10:30:35.013Z,99.67
2023-10-13T10:31:30.495Z,100.00
2023-10-13T10:32:15.124Z,100.00
2023-10-13T10:33:02.757Z,100.00
2023-10-13T10:33:36.075Z,100.33
2023-10-13T10:34:17.204Z,101.00
2023-10-13T10:34:51.363Z,101.00
2023-10-13T10:35:25.263Z,101.00
2023-10-13T10:36:03.035Z,101.00
2023-10-13T10:36:37.846Z,101.00
2023-10-13T10:37:12.925Z,101.00
2023-10-13T10:37:49.888Z,102.67
2023-10-13T10:38:29.603Z,103.00
2023-10-13T10:39:07.494Z,99.33
2023-10-13T10:39:47.533Z,96.67
2023-10-13T10:40:39.718Z,96.00
2023-10-13T10:41:14.811Z,96.00
2023-10-13T10:41:53.375Z,96.00
2023-10-13T10:42:30.435Z,96.33
2023-10-13T10:43:25.483Z,96.00
2023-10-13T10:44:09.949Z,93.67
2023-10-13T10:44:45.188Z,94.00
2023-10-13T10:45:23.563Z,93.67
2023-10-13T10:46:00.949Z,93.00
2023-10-13T10:46:43.392Z,92.00
2023-10-13T10:47:21.276Z,92.33
2023-10-13T10:47:59.510Z,93.00
2023-10-13T10:48:35.412Z,93.33
2023-10-13T10:49:09.876Z,94.67
2023-10-13T10:49:43.470Z,95.00
2023-10-13T10:50:36.055Z,95.00
2023-10-13T10:51:25.474Z,95.33
2023-10-13T10:52:08.942Z,95.00
2023-10-13T10:52:42.389Z,95.00
2023-10-13T10:53:15.965Z,95.33
2023-10-13T10:53:58.406Z,99.67
2023-10-13T10:54:35.503Z,105.67
2023-10-13T10:55:10.508Z,106.67
2023-10-13T10:55:44.146Z,106.00
2023-10-13T10:56:35.655Z,105.00
2023-10-13T10:57:18.959Z,103.67
2023-10-13T10:58:02.735Z,101.00
2023-10-13T10:58:45.223Z,99.00
2023-10-13T10:59:23.810Z,102.00
2023-10-13T11:00:12.455Z,105.33
2023-10-13T11:00:51.655Z,105.00
2023-10-13T11:01:35.115Z,104.00
2023-10-13T11:02:10.167Z,102.00
2023-10-13T11:02:43.552Z,98.00
2023-10-13T11:03:17.371Z,96.33
2023-10-13T11:04:17.413Z,96.00
2023-10-13T11:04:55.107Z,95.00
2023-10-13T11:05:33.924Z,96.00
2023-10-13T11:06:16.256Z,96.00
2023-10-13T11:06:57.520Z,96.00
2023-10-13T11:07:32.770Z,97.00
2023-10-13T11:08:13.503Z,98.00
2023-10-13T11:08:53.345Z,99.00
2023-10-13T11:09:38.576Z,100.67
2023-10-13T11:10:21.137Z,99.33
2023-10-13T11:10:54.433Z,99.00
2023-10-13T11:11:36.996Z,98.00
2023-10-13T11:12:24.590Z,92.00
2023-10-13T11:13:19.869Z,88.67
2023-10-13T11:14:11.896Z,88.67
2023-10-13T11:14:51.811Z,91.00
2023-10-13T11:15:35.099Z,88.67
2023-10-13T11:16:09.644Z,82.67
2023-10-13T11:16:52.031Z,79.33
2023-10-13T11:17:27.983Z,78.00
2023-10-13T11:18:02.096Z,74.67
2023-10-13T11:18:39.791Z,69.33
2023-10-13T11:19:13.154Z,65.67
2023-10-13T11:19:46.814Z,63.00
2023-10-13T11:20:35.330Z,61.67
2023-10-13T11:21:08.879Z,61.00
2023-10-13T11:21:45.960Z,66.67
2023-10-13T11:22:37.114Z,73.33
2023-10-13T11:23:15.095Z,157.67
2023-10-13T11:24:09.918Z,104.00
2023-10-13T11:24:44.053Z,69.00
2023-10-13T11:25:31.596Z,61.00
2023-10-13T11:26:06.963Z,60.00
2023-10-13T11:26:53.729Z,57.67
2023-10-13T11:27:56.504Z,62.67
2023-10-13T11:28:29.939Z,58.33
2023-10-13T11:29:11.553Z,57.33
2023-10-13T11:29:53.313Z,59.33
2023-10-13T11:30:32.194Z,57.00
2023-10-13T11:31:20.365Z,57.00
2023-10-13T11:32:00.398Z,57.00
2023-10-13T11:32:34.618Z,57.00
2023-10-13T11:33:19.450Z,55.00
2023-10-13T11:33:57.626Z,52.33
2023-10-13T11:34:41.189Z,52.00
2023-10-13T11:35:21.739Z,50.33
2023-10-13T11:35:55.776Z,49.00
2023-10-13T11:36:36.517Z,49.67
2023-10-13T11:37:29.609Z,50.00
2023-10-13T11:38:14.815Z,49.00
2023-10-13T11:38:48.112Z,49.67
2023-10-13T11:39:34.431Z,50.00
2023-10-13T11:40:15.660Z,51.00
2023-10-13T11:41:06.539Z,52.00
2023-10-13T11:41:54.953Z,53.00
2023-10-13T11:42:28.655Z,54.00
2023-10-13T11:43:02.022Z,54.00
2023-10-13T11:43:41.969Z,54.33
2023-10-13T11:44:18.693Z,55.00
2023-10-13T11:45:12.667Z,54.67
2023-10-13T11:46:01.829Z,54.00
2023-10-13T11:46:38.762Z,54.00
2023-10-13T11:47:38.308Z,54.00
2023-10-13T11:48:15.830Z,53.00
2023-10-13T11:48:55.625Z,52.67
2023-10-13T11:49:32.075Z,52.00
2023-10-13T11:50:07.323Z,52.00
2023-10-13T11:50:43.167Z,52.00
2023-10-13T11:51:25.722Z,52.67
2023-10-13T11:52:17.813Z,53.00
2023-10-13T11:52:51.521Z,53.00
2023-10-13T11:53:28.798Z,51.67
2023-10-13T11:54:02.343Z,50.00
2023-10-13T11:54:37.428Z,48.67
2023-10-13T11:55:10.980Z,46.67
2023-10-13T11:55:44.367Z,45.33
2023-10-13T11:56:18.701Z,44.33
2023-10-13T11:56:52.204Z,43.00
2023-10-13T11:57:25.755Z,42.00
2023-10-13T11:58:00.681Z,41.33
2023-10-13T11:58:36.479Z,40.00
2023-10-13T11:59:17.620Z,38.00
2023-10-13T12:00:19.855Z,34.67
2023-10-13T12:00:55.726Z,34.00
2023-10-13T12:01:50.872Z,34.00
2023-10-13T12:02:27.306Z,34.00
2023-10-13T12:03:19.490Z,34.00
2023-10-13T12:04:11.738Z,35.00
2023-10-13T12:04:52.927Z,35.33
2023-10-13T12:05:38.678Z,36.00
2023-10-13T12:06:36.677Z,36.00
2023-10-13T12:07:16.212Z,36.00
2023-10-13T12:07:53.229Z,36.67
2023-10-13T12:08:34.223Z,37.00
2023-10-13T12:09:19.685Z,37.00
2023-10-13T12:09:56.444Z,36.67
2023-10-13T12:10:40.307Z,36.00
2023-10-13T12:11:31.684Z,36.00
2023-10-13T12:12:07.602Z,36.00
2023-10-13T12:12:48.846Z,36.00
2023-10-13T12:13:22.443Z,36.67
2023-10-13T12:13:56.447Z,37.00
2023-10-13T12:14:31.145Z,36.00
2023-10-13T12:15:10.904Z,36.00
2023-10-13T12:15:52.704Z,36.00
2023-10-13T12:16:35.742Z,36.00
2023-10-13T12:17:11.983Z,37.00
2023-10-13T12:17:46.654Z,37.00
2023-10-13T12:18:20.844Z,37.33
2023-10-13T12:18:56.991Z,38.00
2023-10-13T12:19:30.762Z,39.00
2023-10-13T12:20:10.445Z,39.00
2023-10-13T12:20:47.043Z,39.00
2023-10-13T12:21:22.900Z,39.00
2023-10-13T12:21:58.762Z,39.00
2023-10-13T12:22:52.590Z,39.00
2023-10-13T12:23:32.731Z,39.00
2023-10-13T12:24:13.143Z,39.00
2023-10-13T12:24:54.510Z,39.00
2023-10-13T12:25:33.948Z,39.00
2023-10-13T12:26:20.247Z,37.67
2023-10-13T12:26:57.048Z,37.00
2023-10-13T12:27:46.711Z,37.00
2023-10-13T12:28:22.808Z,36.67
2023-10-13T12:29:07.457Z,35.33
2023-10-13T12:29:47.355Z,31.00
2023-10-13T12:30:36.604Z,28.33
2023-10-13T12:31:13.499Z,27.00
2023-10-13T12:31:53.654Z,27.00
2023-10-13T12:32:32.101Z,26.33
2023-10-13T12:33:10.554Z,25.67
2023-10-13T12:33:43.994Z,24.33
2023-10-13T12:34:30.601Z,24.00
2023-10-13T12:35:04.185Z,24.00
2023-10-13T12:36:10.783Z,24.00
2023-10-13T12:36:54.555Z,25.00
2023-10-13T12:37:50.739Z,25.00
2023-10-13T12:38:42.678Z,26.00
2023-10-13T12:39:37.440Z,27.00
2023-10-13T12:40:34.286Z,27.00
2023-10-13T12:41:35.121Z,27.67
2023-10-13T12:42:27.711Z,29.00
2023-10-13T12:43:20.079Z,30.00
2023-10-13T12:44:12.162Z,29.33
2023-10-13T12:45:06.420Z,27.33
2023-10-13T12:46:09.323Z,25.00
2023-10-13T12:47:02.340Z,24.00
2023-10-13T12:47:54.612Z,24.67
2023-10-13T12:48:48.131Z,24.00
2023-10-13T12:49:43.492Z,23.67
2023-10-13T12:50:35.740Z,21.67
2023-10-13T12:51:22.309Z,22.00
2023-10-13T12:51:55.568Z,22.33
2023-10-13T12:52:34.988Z,23.00
2023-10-13T12:53:15.125Z,22.67
2023-10-13T12:53:49.832Z,22.00
2023-10-13T12:54:25.317Z,22.00
2023-10-13T12:54:59.046Z,21.33
2023-10-13T12:55:33.872Z,19.67
2023-10-13T12:56:08.031Z,18.33
2023-10-13T12:56:44.065Z,19.00
2023-10-13T12:57:17.686Z,19.00
2023-10-13T12:57:50.921Z,19.00
2023-10-13T12:58:28.371Z,19.67
2023-10-13T12:59:01.732Z,20.67
2023-10-13T12:59:35.581Z,21.00
2023-10-13T13:00:18.264Z,21.67
2023-10-13T13:00:56.891Z,22.67
2023-10-13T13:01:34.435Z,24.67
2023-10-13T13:02:09.561Z,26.67
2023-10-13T13:02:43.518Z,28.67
2023-10-13T13:03:17.302Z,29.67
2023-10-13T13:03:52.291Z,30.00
2023-10-13T13:04:29.215Z,29.33
2023-10-13T13:05:07.806Z,29.00
2023-10-13T13:05:48.367Z,29.00
2023-10-13T13:06:26.681Z,29.67
2023-10-13T13:07:00.285Z,30.00
2023-10-13T13:07:44.565Z,29.33
2023-10-13T13:08:23.850Z,29.67
2023-10-13T13:09:01.421Z,31.00
2023-10-13T13:09:38.607Z,33.33
2023-10-13T13:10:15.337Z,34.67
2023-10-13T13:10:49.373Z,34.00
2023-10-13T13:11:24.152Z,34.00
2023-10-13T13:11:59.909Z,32.67
2023-10-13T13:12:36.294Z,31.00
2023-10-13T13:13:10.344Z,30.00
2023-10-13T13:13:43.744Z,30.00
2023-10-13T13:14:17.233Z,29.00
2023-10-13T13:14:55.345Z,29.33
2023-10-13T13:15:28.637Z,30.33
2023-10-13T13:16:01.898Z,32.00
2023-10-13T13:16:36.401Z,32.00
2023-10-13T13:17:10.043Z,31.67
2023-10-13T13:17:43.771Z,31.00
2023-10-13T13:18:17.284Z,31.00
2023-10-13T13:18:51.280Z,31.00
2023-10-13T13:19:27.233Z,32.67
2023-10-13T13:20:01.004Z,34.00
2023-10-13T13:20:34.590Z,35.00
2023-10-13T13:21:13.162Z,35.00
2023-10-13T13:21:46.938Z,35.00
2023-10-13T13:22:21.867Z,34.67
2023-10-13T13:22:56.947Z,34.00
2023-10-13T13:23:59.632Z,34.00
2023-10-13T13:24:33.450Z,34.00
2023-10-13T13:25:10.469Z,34.67
2023-10-13T13:25:45.891Z,34.67
2023-10-13T13:26:19.762Z,34.00
2023-10-13T13:26:56.016Z,34.00
2023-10-13T13:27:32.796Z,33.33
2023-10-13T13:28:07.296Z,33.00
2023-10-13T13:28:40.951Z,32.67
2023-10-13T13:29:14.517Z,31.67
2023-10-13T13:29:48.084Z,29.33
2023-10-13T13:30:23.081Z,28.00
2023-10-13T13:30:57.226Z,27.00
2023-10-13T13:31:30.857Z,26.33
2023-10-13T13:32:08.824Z,26.00
2023-10-13T13:32:42.315Z,25.33
2023-10-13T13:33:17.297Z,25.00
2023-10-13T13:33:51.102Z,25.00
2023-10-13T13:34:24.650Z,25.00
2023-10-13T13:35:14.805Z,25.00
2023-10-13T13:35:50.137Z,25.33
2023-10-13T13:36:23.851Z,26.33
2023-10-13T13:37:01.925Z,27.00
2023-10-13T13:37:38.884Z,27.00
2023-10-13T13:38:23.135Z,27.00
2023-10-13T13:39:03.156Z,27.00
2023-10-13T13:39:44.296Z,26.00
2023-10-13T13:40:19.458Z,26.00
2023-10-13T13:40:55.468Z,26.00
2023-10-13T13:41:29.303Z,26.00
2023-10-13T13:42:05.630Z,26.00
2023-10-13T13:42:42.037Z,25.67
2023-10-13T13:43:36.975Z,24.33
2023-10-13T13:44:16.844Z,23.00
2023-10-13T13:44:50.947Z,22.00
2023-10-13T13:45:30.349Z,21.67
2023-10-13T13:46:04.746Z,21.00
2023-10-13T13:46:44.333Z,21.00
2023-10-13T13:47:18.474Z,21.00
2023-10-13T13:47:55.134Z,21.00
2023-10-13T13:48:29.807Z,20.00
2023-10-13T13:49:03.801Z,20.00
2023-10-13T13:49:41.046Z,20.00
2023-10-13T13:50:21.071Z,20.00
2023-10-13T13:51:05.006Z,20.00
2023-10-13T13:51:39.261Z,20.00
2023-10-13T13:52:18.928Z,18.67
2023-10-13T13:52:58.845Z,16.33
2023-10-13T13:53:39.286Z,15.33
2023-10-13T13:54:12.979Z,15.00
2023-10-13T13:54:46.543Z,15.00
2023-10-13T13:55:21.502Z,14.33
2023-10-13T13:55:54.939Z,14.00
2023-10-13T13:56:32.304Z,14.00
2023-10-13T13:57:07.253Z,14.00
2023-10-13T13:57:40.679Z,14.00
2023-10-13T13:58:14.375Z,15.00
2023-10-13T13:58:51.429Z,15.00
2023-10-13T13:59:24.874Z,15.00
2023-10-13T13:59:59.017Z,14.33
2023-10-13T14:00:38.883Z,13.67
2023-10-13T14:01:30.701Z,12.33
2023-10-13T14:02:21.183Z,11.00
2023-10-13T14:02:56.747Z,10.00
2023-10-13T14:03:33.653Z,10.00
2023-10-13T14:04:08.910Z,10.00
2023-10-13T14:04:47.792Z,10.00
2023-10-13T14:05:21.434Z,10.00
2023-10-13T14:05:55.385Z,10.00
2023-10-13T14:06:28.967Z,10.00
2023-10-13T14:07:07.648Z,10.00
2023-10-13T14:07:42.589Z,9.33
2023-10-13T14:08:17.674Z,9.00
2023-10-13T14:08:52.450Z,9.00
2023-10-13T14:09:37.599Z,9.00
2023-10-13T14:10:18.034Z,9.00
2023-10-13T14:11:09.976Z,9.00
2023-10-13T14:12:02.644Z,9.00
2023-10-13T14:12:43.541Z,9.00
2023-10-13T14:13:17.433Z,9.00
2023-10-13T14:13:57.296Z,9.00
2023-10-13T14:14:34.912Z,9.00
2023-10-13T14:15:21.468Z,9.00
2023-10-13T14:15:57.617Z,9.00
2023-10-13T14:16:34.613Z,8.67
2023-10-13T14:17:09.479Z,8.00
2023-10-13T14:17:44.056Z,8.00
2023-10-13T14:18:18.370Z,8.00
2023-10-13T14:18:53.188Z,8.00
2023-10-13T14:19:29.520Z,8.67
2023-10-13T14:20:17.180Z,9.00
2023-10-13T14:20:50.641Z,9.67
2023-10-13T14:21:25.684Z,10.00
2023-10-13T14:22:07.957Z,10.00
2023-10-13T14:22:42.841Z,9.00
2023-10-13T14:23:17.106Z,9.00
2023-10-13T14:23:54.864Z,9.67
2023-10-13T14:24:44.977Z,10.00
2023-10-13T14:25:19.375Z,10.00
2023-10-13T14:25:53.180Z,9.33
2023-10-13T14:26:27.019Z,9.00
2023-10-13T14:27:10.591Z,9.00
2023-10-13T14:27:44.602Z,8.00
2023-10-13T14:28:19.325Z,8.00
2023-10-13T14:29:01.870Z,7.00
2023-10-13T14:29:41.670Z,7.00
2023-10-13T14:30:20.979Z,7.00
2023-10-13T14:30:55.037Z,7.00
2023-10-13T14:31:32.799Z,7.00
2023-10-13T14:32:06.637Z,7.00
2023-10-13T14:32:44.168Z,7.00
2023-10-13T14:33:17.714Z,6.33
2023-10-13T14:33:51.259Z,6.33
2023-10-13T14:34:27.507Z,7.00
2023-10-13T14:35:01.758Z,7.00
2023-10-13T14:35:37.961Z,7.00
2023-10-13T14:36:11.952Z,7.00
2023-10-13T14:36:49.488Z,7.00
2023-10-13T14:37:33.013Z,7.00
2023-10-13T14:38:07.211Z,7.00
2023-10-13T14:38:45.640Z,7.00
2023-10-13T14:39:22.117Z,7.00
2023-10-13T14:39:58.323Z,6.00
2023-10-13T14:40:32.186Z,6.00
2023-10-13T14:41:06.946Z,6.00
2023-10-13T14:41:41.780Z,6.00
2023-10-13T14:42:18.148Z,6.33
2023-10-13T14:42:56.960Z,7.00
2023-10-13T14:43:30.752Z,7.00
2023-10-13T14:44:06.767Z,7.00
2023-10-13T14:44:41.303Z,7.00
2023-10-13T14:45:14.870Z,7.00
2023-10-13T14:45:48.677Z,7.00
2023-10-13T14:46:24.355Z,7.00
2023-10-13T14:46:58.150Z,7.00
2023-10-13T14:47:31.596Z,7.67
2023-10-13T14:48:06.767Z,8.33
2023-10-13T14:48:40.145Z,9.00
2023-10-13T14:49:15.396Z,9.33
2023-10-13T14:49:48.761Z,10.00
2023-10-13T14:50:22.255Z,10.00
2023-10-13T14:50:55.766Z,10.00
2023-10-13T14:51:30.050Z,9.00
2023-10-13T14:52:03.572Z,9.00
2023-10-13T14:52:37.262Z,9.00
2023-10-13T14:53:10.657Z,9.00
2023-10-13T14:53:48.467Z,9.00
2023-10-13T14:54:33.876Z,10.00
2023-10-13T14:55:22.637Z,10.33
2023-10-13T14:55:56.525Z,11.00
2023-10-13T14:56:30.256Z,11.33
2023-10-13T14:57:05.057Z,12.00
2023-10-13T14:57:38.929Z,12.00
2023-10-13T14:58:17.278Z,12.00
2023-10-13T14:58:51.686Z,13.00
2023-10-13T14:59:25.378Z,14.67
2023-10-13T14:59:59.119Z,15.00
2023-10-13T15:00:35.865Z,15.00
2023-10-13T15:01:16.904Z,15.00
2023-10-13T15:01:50.871Z,16.33
2023-10-13T15:02:24.747Z,18.00
2023-10-13T15:03:02.389Z,17.00
2023-10-13T15:03:39.298Z,17.00
2023-10-13T15:04:12.642Z,17.00
2023-10-13T15:04:49.626Z,17.00
2023-10-13T15:05:23.382Z,16.67
2023-10-13T15:05:57.051Z,16.00
2023-10-13T15:06:30.423Z,16.00
2023-10-13T15:07:04.250Z,16.00
2023-10-13T15:07:37.774Z,16.00
2023-10-13T15:08:11.521Z,15.33
2023-10-13T15:08:49.635Z,15.00
2023-10-13T15:09:24.860Z,15.00
2023-10-13T15:10:00.232Z,15.00
2023-10-13T15:10:34.148Z,14.00
2023-10-13T15:11:14.145Z,14.00
2023-10-13T15:11:54.525Z,14.00
2023-10-13T15:12:29.662Z,14.00
2023-10-13T15:13:06.411Z,14.00
2023-10-13T15:13:45.950Z,13.00
2023-10-13T15:14:21.597Z,13.00
2023-10-13T15:14:57.720Z,13.00
2023-10-13T15:15:33.363Z,14.00
2023-10-13T15:16:24.719Z,15.00
2023-10-13T15:17:01.783Z,16.00
2023-10-13T15:17:39.812Z,16.33
2023-10-13T15:18:18.092Z,17.00
2023-10-13T15:18:53.825Z,20.00
2023-10-13T15:19:27.144Z,27.00
2023-10-13T15:20:01.096Z,29.00
2023-10-13T15:20:44.858Z,29.00
2023-10-13T15:21:31.683Z,29.00
2023-10-13T15:22:08.526Z,29.67
2023-10-13T15:22:49.194Z,32.33
2023-10-13T15:23:24.954Z,34.33
2023-10-13T15:24:04.860Z,36.67
2023-10-13T15:24:46.380Z,41.33
2023-10-13T15:25:29.610Z,51.33
2023-10-13T15:26:10.747Z,53.00
2023-10-13T15:26:53.607Z,53.33
2023-10-13T15:27:30.024Z,53.67
2023-10-13T15:28:04.008Z,54.33
2023-10-13T15:28:38.898Z,54.33
2023-10-13T15:29:19.678Z,56.67
2023-10-13T15:29:53.320Z,60.33
2023-10-13T15:30:43.670Z,64.00
2023-10-13T15:31:35.994Z,72.00
2023-10-13T15:32:28.263Z,84.00
2023-10-13T15:33:02.169Z,74.00
2023-10-13T15:33:35.995Z,66.33
2023-10-13T15:34:15.835Z,63.67
2023-10-13T15:34:49.934Z,63.00
2023-10-13T15:35:23.879Z,63.33
2023-10-13T15:35:58.102Z,66.00
2023-10-13T15:36:32.802Z,69.67
2023-10-13T15:37:06.712Z,69.67
2023-10-13T15:37:41.723Z,72.00
2023-10-13T15:38:15.982Z,76.00
2023-10-13T15:38:50.768Z,81.67
2023-10-13T15:39:25.105Z,87.33
2023-10-13T15:40:01.395Z,93.00
2023-10-13T15:40:43.285Z,99.67
2023-10-13T15:41:28.011Z,104.00
2023-10-13T15:42:03.518Z,133.67
2023-10-13T15:42:42.374Z,183.33
2023-10-13T15:43:16.114Z,203.00
2023-10-13T15:43:50.827Z,193.33
2023-10-13T15:44:25.913Z,175.33
2023-10-13T15:44:59.313Z,171.67
2023-10-13T15:45:40.423Z,238.00
2023-10-13T15:47:22.169Z,240.67
2023-10-13T15:48:29.483Z,230.33
2023-10-13T15:49:14.377Z,231.67
2023-10-13T15:49:50.622Z,219.00
2023-10-13T15:50:24.688Z,224.00
2023-10-13T15:50:58.454Z,223.67
2023-10-13T15:51:37.528Z,214.00
2023-10-13T15:52:11.593Z,205.00
2023-10-13T15:52:47.770Z,203.33
2023-10-13T15:53:21.441Z,217.33
2023-10-13T15:53:55.060Z,216.33
2023-10-13T15:54:28.584Z,207.67
2023-10-13T15:55:02.098Z,207.00
2023-10-13T15:55:38.910Z,206.67
2023-10-13T15:56:13.041Z,201.67
2023-10-13T15:56:49.521Z,200.00
2023-10-13T15:57:24.594Z,191.33
2023-10-13T15:57:57.985Z,173.00
2023-10-13T15:58:31.584Z,163.33
2023-10-13T15:59:08.205Z,156.67
2023-10-13T15:59:47.990Z,158.33
2023-10-13T16:00:24.520Z,160.00
2023-10-13T16:00:58.149Z,158.67
2023-10-13T16:01:34.790Z,159.00
2023-10-13T16:02:13.306Z,159.33
2023-10-13T16:02:47.294Z,161.00
2023-10-13T16:03:20.767Z,162.67
2023-10-13T16:03:54.396Z,164.00
2023-10-13T16:04:28.119Z,166.33
2023-10-13T16:05:01.920Z,169.67
2023-10-13T16:05:36.122Z,172.67
2023-10-13T16:06:12.488Z,177.67
2023-10-13T16:06:48.723Z,180.33
2023-10-13T16:07:23.127Z,181.67
2023-10-13T16:07:56.611Z,183.33
2023-10-13T16:08:32.739Z,185.00
2023-10-13T16:09:15.170Z,186.67
2023-10-13T16:09:59.142Z,186.67
2023-10-13T16:10:34.804Z,186.00
2023-10-13T16:11:14.740Z,185.33
2023-10-13T16:11:48.285Z,185.00
2023-10-13T16:12:21.680Z,185.00
2023-10-13T16:12:55.240Z,185.00
2023-10-13T16:13:28.552Z,185.00
2023-10-13T16:14:11.636Z,184.67
2023-10-13T16:14:45.275Z,183.67
2023-10-13T16:15:19.703Z,183.00
2023-10-13T16:15:53.599Z,183.00
2023-10-13T16:16:28.087Z,182.67
2023-10-13T16:17:03.702Z,181.33
2023-10-13T16:17:40.287Z,179.00
2023-10-13T16:18:14.168Z,176.67
2023-10-13T16:18:48.462Z,172.67
2023-10-13T16:19:24.728Z,168.33
2023-10-13T16:20:01.109Z,167.67
2023-10-13T16:20:36.308Z,167.00
2023-10-13T16:21:13.608Z,163.33
2023-10-13T16:21:48.038Z,159.00
2023-10-13T16:22:21.892Z,159.00
2023-10-13T16:22:55.238Z,157.00
2023-10-13T16:23:29.249Z,154.67
2023-10-13T16:24:02.888Z,152.00
2023-10-13T16:24:36.758Z,148.67
2023-10-13T16:25:19.119Z,147.33
2023-10-13T16:25:57.544Z,145.00
2023-10-13T16:26:31.907Z,145.00
2023-10-13T16:27:05.504Z,146.67
2023-10-13T16:27:44.850Z,146.33
2023-10-13T16:28:23.682Z,143.00
2023-10-13T16:28:59.806Z,141.67
2023-10-13T16:29:34.825Z,141.00
2023-10-13T16:30:20.718Z,143.00
2023-10-13T16:30:55.040Z,144.67
2023-10-13T16:31:31.223Z,145.33
2023-10-13T16:32:05.282Z,145.33
2023-10-13T16:32:38.732Z,145.00
2023-10-13T16:33:12.350Z,145.00
2023-10-13T16:33:46.005Z,143.67
2023-10-13T16:34:20.264Z,142.00
2023-10-13T16:34:59.175Z,140.67
2023-10-13T16:35:35.034Z,138.33
2023-10-13T16:36:12.699Z,137.00
2023-10-13T16:36:48.244Z,135.00
2023-10-13T16:37:21.568Z,133.00
2023-10-13T16:37:55.028Z,130.33
2023-10-13T16:38:29.457Z,128.67
2023-10-13T16:39:04.748Z,125.67
2023-10-13T16:39:40.534Z,123.67
2023-10-13T16:40:21.890Z,124.33
2023-10-13T16:40:58.441Z,124.33
2023-10-13T16:41:31.986Z,126.33
2023-10-13T16:42:08.910Z,127.00
2023-10-13T16:42:45.781Z,127.00
2023-10-13T16:43:22.205Z,127.00
2023-10-13T16:44:07.828Z,128.00
2023-10-13T16:44:41.377Z,128.00
2023-10-13T16:45:26.652Z,128.33
2023-10-13T16:46:00.623Z,129.00
2023-10-13T16:46:34.985Z,129.00
2023-10-13T16:47:09.038Z,129.00
2023-10-13T16:47:45.521Z,130.00
2023-10-13T16:48:19.911Z,130.67
2023-10-13T16:48:56.009Z,131.67
2023-10-13T16:49:29.418Z,133.33
2023-10-13T16:50:03.620Z,135.33
2023-10-13T16:50:38.723Z,136.00
2023-10-13T16:51:15.587Z,136.33
2023-10-13T16:51:49.426Z,137.00
2023-10-13T16:52:24.737Z,137.00
2023-10-13T16:52:58.404Z,137.33
2023-10-13T16:53:33.402Z,138.00
2023-10-13T16:54:09.222Z,138.67